sensor_id;sensor_type;location;lat;lon;timestamp;P1;durP1;ratioP1;P2;durP2;ratioP2
75639;SDS011;64233;51.486;6.332;2023-06-22T00:01:45;12.80;;;8.67;;
75639;SDS011;64233;51.486;6.332;2023-06-22T00:04:11;15.40;;;9.32;;
75639;SDS011;64233;51.486;6.332;2023-06-22T00:06:36;12.20;;;7.87;;
75639;SDS011;64233;51.486;6.332;2023-06-22T00:09:01;13.20;;;8.70;;
75639;SDS011;64233;51.486;6.332;2023-06-22T00:11:28;14.82;;;9.10;;
75639;SDS011;64233;51.486;6.332;2023-06-22T00:13:53;11.77;;;8.55;;
75639;SDS011;64233;51.486;6.332;2023-06-22T00:16:18;12.45;;;7.93;;
75639;SDS011;64233;51.486;6.332;2023-06-22T00:18:43;14.77;;;8.98;;
75639;SDS011;64233;51.486;6.332;2023-06-22T00:21:12;15.70;;;9.30;;
75639;SDS011;64233;51.486;6.332;2023-06-22T00:23:37;14.80;;;8.88;;
75639;SDS011;64233;51.486;6.332;2023-06-22T00:26:03;15.07;;;9.77;;
75639;SDS011;64233;51.486;6.332;2023-06-22T00:28:28;16.30;;;8.70;;
75639;SDS011;64233;51.486;6.332;2023-06-22T00:30:54;20.98;;;9.13;;
75639;SDS011;64233;51.486;6.332;2023-06-22T00:33:19;17.40;;;9.60;;
75639;SDS011;64233;51.486;6.332;2023-06-22T00:35:44;16.75;;;10.60;;
75639;SDS011;64233;51.486;6.332;2023-06-22T00:38:09;14.43;;;9.70;;
75639;SDS011;64233;51.486;6.332;2023-06-22T00:40:35;11.98;;;8.85;;
75639;SDS011;64233;51.486;6.332;2023-06-22T00:43:00;14.80;;;9.45;;
75639;SDS011;64233;51.486;6.332;2023-06-22T00:45:26;14.77;;;9.23;;
75639;SDS011;64233;51.486;6.332;2023-06-22T00:47:52;13.23;;;8.68;;
75639;SDS011;64233;51.486;6.332;2023-06-22T00:50:23;12.57;;;8.68;;
75639;SDS011;64233;51.486;6.332;2023-06-22T00:52:53;10.38;;;8.35;;
75639;SDS011;64233;51.486;6.332;2023-06-22T00:55:23;14.07;;;9.35;;
75639;SDS011;64233;51.486;6.332;2023-06-22T00:57:51;13.18;;;9.48;;
75639;SDS011;64233;51.486;6.332;2023-06-22T01:00:21;18.98;;;9.73;;
75639;SDS011;64233;51.486;6.332;2023-06-22T01:02:49;12.93;;;9.55;;
75639;SDS011;64233;51.486;6.332;2023-06-22T01:05:21;14.93;;;10.48;;
75639;SDS011;64233;51.486;6.332;2023-06-22T01:10:49;13.38;;;9.32;;
75639;SDS011;64233;51.486;6.332;2023-06-22T01:13:23;13.57;;;8.80;;
75639;SDS011;64233;51.486;6.332;2023-06-22T01:18:44;12.13;;;8.27;;
75639;SDS011;64233;51.486;6.332;2023-06-22T01:21:13;14.38;;;9.48;;
75639;SDS011;64233;51.486;6.332;2023-06-22T01:26:54;15.60;;;9.70;;
75639;SDS011;64233;51.486;6.332;2023-06-22T01:29:32;15.82;;;10.18;;
75639;SDS011;64233;51.486;6.332;2023-06-22T01:31:59;15.45;;;9.98;;
75639;SDS011;64233;51.486;6.332;2023-06-22T01:34:25;14.82;;;10.20;;
75639;SDS011;64233;51.486;6.332;2023-06-22T01:36:52;13.98;;;9.63;;
75639;SDS011;64233;51.486;6.332;2023-06-22T01:39:18;14.95;;;9.80;;
75639;SDS011;64233;51.486;6.332;2023-06-22T01:41:45;13.50;;;9.70;;
75639;SDS011;64233;51.486;6.332;2023-06-22T01:44:12;14.43;;;9.75;;
75639;SDS011;64233;51.486;6.332;2023-06-22T01:46:38;13.32;;;9.70;;
75639;SDS011;64233;51.486;6.332;2023-06-22T01:49:05;14.88;;;9.35;;
75639;SDS011;64233;51.486;6.332;2023-06-22T01:51:31;15.23;;;9.15;;
75639;SDS011;64233;51.486;6.332;2023-06-22T01:53:57;16.13;;;9.13;;
75639;SDS011;64233;51.486;6.332;2023-06-22T01:56:22;12.33;;;9.57;;
75639;SDS011;64233;51.486;6.332;2023-06-22T01:58:50;12.98;;;9.52;;
75639;SDS011;64233;51.486;6.332;2023-06-22T02:01:24;14.02;;;9.60;;
75639;SDS011;64233;51.486;6.332;2023-06-22T02:04:03;14.48;;;9.30;;
75639;SDS011;64233;51.486;6.332;2023-06-22T02:06:35;15.20;;;9.65;;
75639;SDS011;64233;51.486;6.332;2023-06-22T02:09:05;14.50;;;10.75;;
75639;SDS011;64233;51.486;6.332;2023-06-22T02:11:34;14.63;;;9.50;;
75639;SDS011;64233;51.486;6.332;2023-06-22T02:14:01;15.85;;;9.88;;
75639;SDS011;64233;51.486;6.332;2023-06-22T02:16:27;17.67;;;10.30;;
75639;SDS011;64233;51.486;6.332;2023-06-22T02:18:55;15.20;;;10.23;;
75639;SDS011;64233;51.486;6.332;2023-06-22T02:21:21;19.95;;;10.23;;
75639;SDS011;64233;51.486;6.332;2023-06-22T02:23:47;16.45;;;10.52;;
75639;SDS011;64233;51.486;6.332;2023-06-22T02:26:12;13.32;;;10.10;;
75639;SDS011;64233;51.486;6.332;2023-06-22T02:28:38;12.60;;;10.00;;
75639;SDS011;64233;51.486;6.332;2023-06-22T02:31:03;13.77;;;9.75;;
75639;SDS011;64233;51.486;6.332;2023-06-22T02:33:28;17.42;;;10.88;;
75639;SDS011;64233;51.486;6.332;2023-06-22T02:35:54;15.68;;;9.75;;
75639;SDS011;64233;51.486;6.332;2023-06-22T02:38:19;16.93;;;10.63;;
75639;SDS011;64233;51.486;6.332;2023-06-22T02:40:44;13.73;;;9.63;;
75639;SDS011;64233;51.486;6.332;2023-06-22T02:43:10;13.15;;;9.77;;
75639;SDS011;64233;51.486;6.332;2023-06-22T02:45:35;14.68;;;9.82;;
75639;SDS011;64233;51.486;6.332;2023-06-22T02:48:01;15.87;;;10.20;;
75639;SDS011;64233;51.486;6.332;2023-06-22T02:50:26;14.57;;;11.00;;
75639;SDS011;64233;51.486;6.332;2023-06-22T02:52:51;15.95;;;9.57;;
75639;SDS011;64233;51.486;6.332;2023-06-22T02:55:16;18.77;;;10.48;;
75639;SDS011;64233;51.486;6.332;2023-06-22T02:57:42;15.52;;;10.88;;
75639;SDS011;64233;51.486;6.332;2023-06-22T03:00:09;16.83;;;10.02;;
75639;SDS011;64233;51.486;6.332;2023-06-22T03:05:10;18.30;;;10.93;;
75639;SDS011;64233;51.486;6.332;2023-06-22T03:07:38;14.52;;;10.05;;
75639;SDS011;64233;51.486;6.332;2023-06-22T03:10:04;16.38;;;10.32;;
75639;SDS011;64233;51.486;6.332;2023-06-22T03:12:30;13.65;;;10.50;;
75639;SDS011;64233;51.486;6.332;2023-06-22T03:14:55;16.77;;;11.32;;
75639;SDS011;64233;51.486;6.332;2023-06-22T03:17:20;18.83;;;9.90;;
75639;SDS011;64233;51.486;6.332;2023-06-22T03:19:45;20.20;;;11.00;;
75639;SDS011;64233;51.486;6.332;2023-06-22T03:22:11;13.97;;;10.87;;
75639;SDS011;64233;51.486;6.332;2023-06-22T03:24:36;18.35;;;10.80;;
75639;SDS011;64233;51.486;6.332;2023-06-22T03:27:04;14.68;;;9.45;;
75639;SDS011;64233;51.486;6.332;2023-06-22T03:29:30;14.68;;;10.18;;
75639;SDS011;64233;51.486;6.332;2023-06-22T03:31:56;20.33;;;10.93;;
75639;SDS011;64233;51.486;6.332;2023-06-22T03:34:21;14.48;;;9.98;;
75639;SDS011;64233;51.486;6.332;2023-06-22T03:36:46;22.33;;;11.02;;
75639;SDS011;64233;51.486;6.332;2023-06-22T03:39:11;14.07;;;10.32;;
75639;SDS011;64233;51.486;6.332;2023-06-22T03:41:37;14.93;;;11.57;;
75639;SDS011;64233;51.486;6.332;2023-06-22T03:44:02;15.50;;;10.45;;
75639;SDS011;64233;51.486;6.332;2023-06-22T03:46:28;17.58;;;10.07;;
75639;SDS011;64233;51.486;6.332;2023-06-22T03:48:53;17.63;;;11.45;;
75639;SDS011;64233;51.486;6.332;2023-06-22T03:51:18;17.63;;;11.15;;
75639;SDS011;64233;51.486;6.332;2023-06-22T03:53:43;17.33;;;10.85;;
75639;SDS011;64233;51.486;6.332;2023-06-22T03:56:09;18.25;;;11.18;;
75639;SDS011;64233;51.486;6.332;2023-06-22T03:58:34;13.93;;;11.07;;
75639;SDS011;64233;51.486;6.332;2023-06-22T04:01:01;15.48;;;12.52;;
75639;SDS011;64233;51.486;6.332;2023-06-22T04:03:27;16.08;;;11.13;;
75639;SDS011;64233;51.486;6.332;2023-06-22T04:05:52;14.20;;;10.77;;
75639;SDS011;64233;51.486;6.332;2023-06-22T04:08:17;16.13;;;10.35;;
75639;SDS011;64233;51.486;6.332;2023-06-22T04:10:43;15.85;;;11.05;;
75639;SDS011;64233;51.486;6.332;2023-06-22T04:13:09;14.82;;;11.05;;
75639;SDS011;64233;51.486;6.332;2023-06-22T04:15:34;14.52;;;10.65;;
75639;SDS011;64233;51.486;6.332;2023-06-22T04:17:59;19.48;;;11.15;;
75639;SDS011;64233;51.486;6.332;2023-06-22T04:20:25;19.20;;;10.82;;
75639;SDS011;64233;51.486;6.332;2023-06-22T04:22:52;18.70;;;12.65;;
75639;SDS011;64233;51.486;6.332;2023-06-22T04:25:18;18.05;;;11.32;;
75639;SDS011;64233;51.486;6.332;2023-06-22T04:27:43;18.33;;;11.70;;
75639;SDS011;64233;51.486;6.332;2023-06-22T04:30:08;16.23;;;10.73;;
75639;SDS011;64233;51.486;6.332;2023-06-22T04:32:34;18.25;;;10.85;;
75639;SDS011;64233;51.486;6.332;2023-06-22T04:35:01;18.58;;;11.43;;
75639;SDS011;64233;51.486;6.332;2023-06-22T04:37:29;16.88;;;10.73;;
75639;SDS011;64233;51.486;6.332;2023-06-22T04:39:54;17.42;;;11.43;;
75639;SDS011;64233;51.486;6.332;2023-06-22T04:42:20;15.80;;;11.23;;
75639;SDS011;64233;51.486;6.332;2023-06-22T04:44:45;16.23;;;11.23;;
75639;SDS011;64233;51.486;6.332;2023-06-22T04:47:10;16.17;;;11.50;;
75639;SDS011;64233;51.486;6.332;2023-06-22T04:49:36;19.40;;;11.00;;
75639;SDS011;64233;51.486;6.332;2023-06-22T04:52:03;15.98;;;11.85;;
75639;SDS011;64233;51.486;6.332;2023-06-22T04:54:30;18.42;;;11.52;;
75639;SDS011;64233;51.486;6.332;2023-06-22T04:57:07;21.63;;;12.43;;
75639;SDS011;64233;51.486;6.332;2023-06-22T04:59:36;19.35;;;12.20;;
75639;SDS011;64233;51.486;6.332;2023-06-22T05:02:04;16.05;;;11.20;;
75639;SDS011;64233;51.486;6.332;2023-06-22T05:04:30;16.02;;;11.98;;
75639;SDS011;64233;51.486;6.332;2023-06-22T05:06:56;19.50;;;11.93;;
75639;SDS011;64233;51.486;6.332;2023-06-22T05:09:22;20.83;;;12.55;;
75639;SDS011;64233;51.486;6.332;2023-06-22T05:11:48;16.40;;;11.82;;
75639;SDS011;64233;51.486;6.332;2023-06-22T05:14:14;18.73;;;11.88;;
75639;SDS011;64233;51.486;6.332;2023-06-22T05:16:41;18.60;;;11.95;;
75639;SDS011;64233;51.486;6.332;2023-06-22T05:19:06;19.35;;;12.10;;
75639;SDS011;64233;51.486;6.332;2023-06-22T05:21:32;23.30;;;12.77;;
75639;SDS011;64233;51.486;6.332;2023-06-22T05:23:58;20.65;;;12.52;;
75639;SDS011;64233;51.486;6.332;2023-06-22T05:26:28;18.15;;;13.20;;
75639;SDS011;64233;51.486;6.332;2023-06-22T05:28:55;17.92;;;11.52;;
75639;SDS011;64233;51.486;6.332;2023-06-22T05:31:21;20.30;;;11.82;;
75639;SDS011;64233;51.486;6.332;2023-06-22T05:33:46;19.58;;;12.25;;
75639;SDS011;64233;51.486;6.332;2023-06-22T05:36:13;21.10;;;13.35;;
75639;SDS011;64233;51.486;6.332;2023-06-22T05:38:39;19.35;;;12.65;;
75639;SDS011;64233;51.486;6.332;2023-06-22T05:41:05;23.08;;;13.43;;
75639;SDS011;64233;51.486;6.332;2023-06-22T05:43:31;16.63;;;12.55;;
75639;SDS011;64233;51.486;6.332;2023-06-22T05:45:57;21.45;;;13.00;;
75639;SDS011;64233;51.486;6.332;2023-06-22T05:48:23;18.52;;;12.52;;
75639;SDS011;64233;51.486;6.332;2023-06-22T05:50:48;19.67;;;11.60;;
75639;SDS011;64233;51.486;6.332;2023-06-22T05:53:13;24.15;;;13.38;;
75639;SDS011;64233;51.486;6.332;2023-06-22T05:55:39;23.10;;;14.15;;
75639;SDS011;64233;51.486;6.332;2023-06-22T05:58:04;19.77;;;13.88;;
75639;SDS011;64233;51.486;6.332;2023-06-22T06:00:30;21.10;;;13.95;;
75639;SDS011;64233;51.486;6.332;2023-06-22T06:02:55;21.23;;;13.73;;
75639;SDS011;64233;51.486;6.332;2023-06-22T06:05:21;20.73;;;14.30;;
75639;SDS011;64233;51.486;6.332;2023-06-22T06:07:48;19.52;;;12.68;;
75639;SDS011;64233;51.486;6.332;2023-06-22T06:10:13;20.33;;;14.18;;
75639;SDS011;64233;51.486;6.332;2023-06-22T06:12:38;19.10;;;13.00;;
75639;SDS011;64233;51.486;6.332;2023-06-22T06:15:04;18.10;;;12.43;;
75639;SDS011;64233;51.486;6.332;2023-06-22T06:17:30;19.90;;;12.00;;
75639;SDS011;64233;51.486;6.332;2023-06-22T06:19:55;18.27;;;12.18;;
75639;SDS011;64233;51.486;6.332;2023-06-22T06:22:20;18.83;;;12.32;;
75639;SDS011;64233;51.486;6.332;2023-06-22T06:24:47;24.20;;;12.38;;
75639;SDS011;64233;51.486;6.332;2023-06-22T06:27:13;20.10;;;12.10;;
75639;SDS011;64233;51.486;6.332;2023-06-22T06:29:38;18.80;;;12.45;;
75639;SDS011;64233;51.486;6.332;2023-06-22T06:32:04;15.77;;;11.75;;
75639;SDS011;64233;51.486;6.332;2023-06-22T06:34:29;23.92;;;12.60;;
75639;SDS011;64233;51.486;6.332;2023-06-22T06:36:54;19.10;;;13.68;;
75639;SDS011;64233;51.486;6.332;2023-06-22T06:39:20;21.27;;;12.18;;
75639;SDS011;64233;51.486;6.332;2023-06-22T06:41:45;18.52;;;13.35;;
75639;SDS011;64233;51.486;6.332;2023-06-22T06:44:11;19.77;;;14.50;;
75639;SDS011;64233;51.486;6.332;2023-06-22T06:46:36;20.63;;;12.85;;
75639;SDS011;64233;51.486;6.332;2023-06-22T06:49:01;19.90;;;13.73;;
75639;SDS011;64233;51.486;6.332;2023-06-22T06:51:27;21.60;;;13.52;;
75639;SDS011;64233;51.486;6.332;2023-06-22T06:53:52;18.90;;;12.63;;
75639;SDS011;64233;51.486;6.332;2023-06-22T06:56:17;21.90;;;14.13;;
75639;SDS011;64233;51.486;6.332;2023-06-22T06:58:43;19.65;;;13.40;;
75639;SDS011;64233;51.486;6.332;2023-06-22T07:01:10;24.17;;;14.30;;
75639;SDS011;64233;51.486;6.332;2023-06-22T07:03:35;20.00;;;12.98;;
75639;SDS011;64233;51.486;6.332;2023-06-22T07:06:00;21.15;;;13.18;;
75639;SDS011;64233;51.486;6.332;2023-06-22T07:08:25;21.13;;;14.23;;
75639;SDS011;64233;51.486;6.332;2023-06-22T07:10:54;20.75;;;13.27;;
75639;SDS011;64233;51.486;6.332;2023-06-22T07:13:19;19.60;;;13.32;;
75639;SDS011;64233;51.486;6.332;2023-06-22T07:15:44;25.00;;;14.00;;
75639;SDS011;64233;51.486;6.332;2023-06-22T07:18:10;21.60;;;14.38;;
75639;SDS011;64233;51.486;6.332;2023-06-22T07:20:35;19.70;;;13.85;;
75639;SDS011;64233;51.486;6.332;2023-06-22T07:23:00;18.95;;;13.93;;
75639;SDS011;64233;51.486;6.332;2023-06-22T07:25:26;17.65;;;13.43;;
75639;SDS011;64233;51.486;6.332;2023-06-22T07:27:58;21.33;;;13.40;;
75639;SDS011;64233;51.486;6.332;2023-06-22T07:30:26;18.58;;;12.98;;
75639;SDS011;64233;51.486;6.332;2023-06-22T07:32:53;18.25;;;14.05;;
75639;SDS011;64233;51.486;6.332;2023-06-22T07:35:18;17.83;;;12.65;;
75639;SDS011;64233;51.486;6.332;2023-06-22T07:37:44;21.08;;;14.18;;
75639;SDS011;64233;51.486;6.332;2023-06-22T07:40:09;23.05;;;13.88;;
75639;SDS011;64233;51.486;6.332;2023-06-22T07:42:35;17.80;;;13.38;;
75639;SDS011;64233;51.486;6.332;2023-06-22T07:45:00;19.83;;;14.02;;
75639;SDS011;64233;51.486;6.332;2023-06-22T07:47:27;18.77;;;13.30;;
75639;SDS011;64233;51.486;6.332;2023-06-22T07:49:53;20.48;;;13.95;;
75639;SDS011;64233;51.486;6.332;2023-06-22T07:52:23;16.70;;;12.35;;
75639;SDS011;64233;51.486;6.332;2023-06-22T07:54:50;21.45;;;13.07;;
75639;SDS011;64233;51.486;6.332;2023-06-22T07:57:15;21.85;;;13.85;;
75639;SDS011;64233;51.486;6.332;2023-06-22T07:59:40;19.45;;;13.57;;
75639;SDS011;64233;51.486;6.332;2023-06-22T08:02:06;23.98;;;11.82;;
75639;SDS011;64233;51.486;6.332;2023-06-22T08:04:33;20.27;;;13.05;;
75639;SDS011;64233;51.486;6.332;2023-06-22T08:06:59;19.83;;;13.32;;
75639;SDS011;64233;51.486;6.332;2023-06-22T08:09:25;21.48;;;13.30;;
75639;SDS011;64233;51.486;6.332;2023-06-22T08:11:50;19.30;;;13.70;;
75639;SDS011;64233;51.486;6.332;2023-06-22T08:14:15;21.73;;;13.70;;
75639;SDS011;64233;51.486;6.332;2023-06-22T08:16:41;21.17;;;12.13;;
75639;SDS011;64233;51.486;6.332;2023-06-22T08:19:07;20.48;;;12.40;;
75639;SDS011;64233;51.486;6.332;2023-06-22T08:21:32;19.55;;;13.38;;
75639;SDS011;64233;51.486;6.332;2023-06-22T08:23:57;21.90;;;12.90;;
75639;SDS011;64233;51.486;6.332;2023-06-22T08:26:23;18.77;;;12.02;;
75639;SDS011;64233;51.486;6.332;2023-06-22T08:28:48;18.98;;;12.38;;
75639;SDS011;64233;51.486;6.332;2023-06-22T08:31:13;19.73;;;13.82;;
75639;SDS011;64233;51.486;6.332;2023-06-22T08:33:39;20.43;;;13.00;;
75639;SDS011;64233;51.486;6.332;2023-06-22T08:36:04;20.35;;;13.27;;
75639;SDS011;64233;51.486;6.332;2023-06-22T08:38:33;20.90;;;12.70;;
75639;SDS011;64233;51.486;6.332;2023-06-22T08:40:58;22.23;;;13.52;;
75639;SDS011;64233;51.486;6.332;2023-06-22T08:43:24;20.23;;;13.75;;
75639;SDS011;64233;51.486;6.332;2023-06-22T08:45:49;17.47;;;12.03;;
75639;SDS011;64233;51.486;6.332;2023-06-22T08:48:14;22.30;;;14.95;;
75639;SDS011;64233;51.486;6.332;2023-06-22T08:50:39;18.37;;;12.77;;
75639;SDS011;64233;51.486;6.332;2023-06-22T08:53:08;21.55;;;11.18;;
75639;SDS011;64233;51.486;6.332;2023-06-22T08:55:33;22.58;;;13.63;;
75639;SDS011;64233;51.486;6.332;2023-06-22T08:57:59;17.17;;;11.55;;
75639;SDS011;64233;51.486;6.332;2023-06-22T09:00:24;20.93;;;12.30;;
75639;SDS011;64233;51.486;6.332;2023-06-22T09:02:50;19.48;;;12.00;;
75639;SDS011;64233;51.486;6.332;2023-06-22T09:05:15;20.05;;;13.93;;
75639;SDS011;64233;51.486;6.332;2023-06-22T09:07:41;17.77;;;13.13;;
75639;SDS011;64233;51.486;6.332;2023-06-22T09:10:06;19.60;;;12.35;;
75639;SDS011;64233;51.486;6.332;2023-06-22T09:12:32;18.58;;;12.65;;
75639;SDS011;64233;51.486;6.332;2023-06-22T09:15:01;19.95;;;13.52;;
75639;SDS011;64233;51.486;6.332;2023-06-22T09:17:27;17.00;;;11.75;;
75639;SDS011;64233;51.486;6.332;2023-06-22T09:19:53;16.10;;;11.68;;
75639;SDS011;64233;51.486;6.332;2023-06-22T09:22:18;20.65;;;12.85;;
75639;SDS011;64233;51.486;6.332;2023-06-22T09:24:43;21.27;;;14.75;;
75639;SDS011;64233;51.486;6.332;2023-06-22T09:27:09;15.63;;;11.80;;
75639;SDS011;64233;51.486;6.332;2023-06-22T09:29:34;21.45;;;13.60;;
75639;SDS011;64233;51.486;6.332;2023-06-22T09:31:59;17.57;;;12.83;;
75639;SDS011;64233;51.486;6.332;2023-06-22T09:34:25;20.45;;;13.10;;
75639;SDS011;64233;51.486;6.332;2023-06-22T09:36:51;19.85;;;12.75;;
75639;SDS011;64233;51.486;6.332;2023-06-22T09:39:17;18.23;;;12.60;;
75639;SDS011;64233;51.486;6.332;2023-06-22T09:41:43;17.85;;;12.27;;
75639;SDS011;64233;51.486;6.332;2023-06-22T09:44:08;21.30;;;13.57;;
75639;SDS011;64233;51.486;6.332;2023-06-22T09:46:33;20.50;;;13.98;;
75639;SDS011;64233;51.486;6.332;2023-06-22T09:48:58;40.15;;;13.07;;
75639;SDS011;64233;51.486;6.332;2023-06-22T09:51:24;17.77;;;11.60;;
75639;SDS011;64233;51.486;6.332;2023-06-22T09:53:49;18.05;;;11.93;;
75639;SDS011;64233;51.486;6.332;2023-06-22T09:56:15;19.63;;;12.38;;
75639;SDS011;64233;51.486;6.332;2023-06-22T09:58:41;17.73;;;12.85;;
75639;SDS011;64233;51.486;6.332;2023-06-22T10:01:08;18.25;;;12.20;;
75639;SDS011;64233;51.486;6.332;2023-06-22T10:03:33;18.95;;;13.00;;
75639;SDS011;64233;51.486;6.332;2023-06-22T10:05:58;18.17;;;12.98;;
75639;SDS011;64233;51.486;6.332;2023-06-22T10:08:24;24.13;;;13.52;;
75639;SDS011;64233;51.486;6.332;2023-06-22T10:10:49;16.15;;;12.30;;
75639;SDS011;64233;51.486;6.332;2023-06-22T10:13:14;19.80;;;12.70;;
75639;SDS011;64233;51.486;6.332;2023-06-22T10:15:40;20.33;;;14.40;;
75639;SDS011;64233;51.486;6.332;2023-06-22T10:18:05;20.30;;;13.80;;
75639;SDS011;64233;51.486;6.332;2023-06-22T10:20:30;16.83;;;12.70;;
75639;SDS011;64233;51.486;6.332;2023-06-22T10:22:56;22.65;;;12.73;;
75639;SDS011;64233;51.486;6.332;2023-06-22T10:25:21;21.77;;;14.50;;
75639;SDS011;64233;51.486;6.332;2023-06-22T10:27:47;19.88;;;12.68;;
75639;SDS011;64233;51.486;6.332;2023-06-22T10:30:12;20.92;;;13.38;;
75639;SDS011;64233;51.486;6.332;2023-06-22T10:32:38;16.23;;;12.40;;
75639;SDS011;64233;51.486;6.332;2023-06-22T10:35:04;19.95;;;13.93;;
75639;SDS011;64233;51.486;6.332;2023-06-22T10:37:30;19.85;;;14.02;;
75639;SDS011;64233;51.486;6.332;2023-06-22T10:39:55;20.02;;;13.63;;
75639;SDS011;64233;51.486;6.332;2023-06-22T10:42:21;18.35;;;13.50;;
75639;SDS011;64233;51.486;6.332;2023-06-22T10:44:49;22.10;;;14.63;;
75639;SDS011;64233;51.486;6.332;2023-06-22T10:47:14;20.55;;;14.18;;
75639;SDS011;64233;51.486;6.332;2023-06-22T10:49:39;19.10;;;12.57;;
75639;SDS011;64233;51.486;6.332;2023-06-22T10:52:08;18.70;;;12.65;;
75639;SDS011;64233;51.486;6.332;2023-06-22T10:54:34;20.48;;;13.82;;
75639;SDS011;64233;51.486;6.332;2023-06-22T10:57:00;18.67;;;13.35;;
75639;SDS011;64233;51.486;6.332;2023-06-22T10:59:26;20.95;;;14.35;;
75639;SDS011;64233;51.486;6.332;2023-06-22T11:01:53;19.35;;;13.82;;
75639;SDS011;64233;51.486;6.332;2023-06-22T11:04:19;17.35;;;12.90;;
75639;SDS011;64233;51.486;6.332;2023-06-22T11:06:44;20.13;;;14.02;;
75639;SDS011;64233;51.486;6.332;2023-06-22T11:09:09;18.00;;;12.40;;
75639;SDS011;64233;51.486;6.332;2023-06-22T11:11:34;21.77;;;12.60;;
75639;SDS011;64233;51.486;6.332;2023-06-22T11:14:00;19.35;;;13.30;;
75639;SDS011;64233;51.486;6.332;2023-06-22T11:16:25;20.55;;;14.40;;
75639;SDS011;64233;51.486;6.332;2023-06-22T11:18:50;23.65;;;13.93;;
75639;SDS011;64233;51.486;6.332;2023-06-22T11:21:16;22.90;;;13.05;;
75639;SDS011;64233;51.486;6.332;2023-06-22T11:23:41;21.85;;;14.25;;
75639;SDS011;64233;51.486;6.332;2023-06-22T11:26:07;21.73;;;14.70;;
75639;SDS011;64233;51.486;6.332;2023-06-22T11:28:32;18.67;;;13.23;;
75639;SDS011;64233;51.486;6.332;2023-06-22T11:30:58;21.42;;;14.75;;
75639;SDS011;64233;51.486;6.332;2023-06-22T11:33:24;26.77;;;14.77;;
75639;SDS011;64233;51.486;6.332;2023-06-22T11:35:49;21.38;;;14.88;;
75639;SDS011;64233;51.486;6.332;2023-06-22T11:38:14;23.17;;;15.00;;
75639;SDS011;64233;51.486;6.332;2023-06-22T11:40:40;19.75;;;15.23;;
75639;SDS011;64233;51.486;6.332;2023-06-22T11:43:05;19.77;;;15.60;;
75639;SDS011;64233;51.486;6.332;2023-06-22T11:45:30;24.42;;;15.73;;
75639;SDS011;64233;51.486;6.332;2023-06-22T11:47:56;21.20;;;15.27;;
75639;SDS011;64233;51.486;6.332;2023-06-22T11:50:21;21.65;;;14.10;;
75639;SDS011;64233;51.486;6.332;2023-06-22T11:52:46;23.00;;;15.82;;
75639;SDS011;64233;51.486;6.332;2023-06-22T11:55:12;21.58;;;16.25;;
75639;SDS011;64233;51.486;6.332;2023-06-22T11:57:38;23.05;;;14.98;;
75639;SDS011;64233;51.486;6.332;2023-06-22T12:00:04;22.00;;;14.55;;
75639;SDS011;64233;51.486;6.332;2023-06-22T12:02:42;24.08;;;16.33;;
75639;SDS011;64233;51.486;6.332;2023-06-22T12:05:08;28.60;;;16.58;;
75639;SDS011;64233;51.486;6.332;2023-06-22T12:07:33;24.88;;;17.33;;
75639;SDS011;64233;51.486;6.332;2023-06-22T12:09:58;27.42;;;17.42;;
75639;SDS011;64233;51.486;6.332;2023-06-22T12:12:24;25.33;;;16.90;;
75639;SDS011;64233;51.486;6.332;2023-06-22T12:14:49;27.08;;;16.13;;
75639;SDS011;64233;51.486;6.332;2023-06-22T12:17:14;24.77;;;13.68;;
75639;SDS011;64233;51.486;6.332;2023-06-22T12:19:40;24.30;;;16.67;;
75639;SDS011;64233;51.486;6.332;2023-06-22T12:22:05;25.10;;;16.40;;
75639;SDS011;64233;51.486;6.332;2023-06-22T12:24:30;23.45;;;16.85;;
75639;SDS011;64233;51.486;6.332;2023-06-22T12:26:56;26.43;;;15.10;;
75639;SDS011;64233;51.486;6.332;2023-06-22T12:29:21;30.70;;;18.15;;
75639;SDS011;64233;51.486;6.332;2023-06-22T12:31:46;24.40;;;16.13;;
75639;SDS011;64233;51.486;6.332;2023-06-22T12:34:11;24.83;;;16.30;;
75639;SDS011;64233;51.486;6.332;2023-06-22T12:36:37;24.47;;;16.27;;
75639;SDS011;64233;51.486;6.332;2023-06-22T12:39:02;17.58;;;10.15;;
75639;SDS011;64233;51.486;6.332;2023-06-22T12:41:27;24.30;;;17.58;;
75639;SDS011;64233;51.486;6.332;2023-06-22T12:43:54;21.33;;;13.45;;
75639;SDS011;64233;51.486;6.332;2023-06-22T12:46:19;24.98;;;17.55;;
75639;SDS011;64233;51.486;6.332;2023-06-22T12:48:45;31.42;;;15.55;;
75639;SDS011;64233;51.486;6.332;2023-06-22T12:51:10;22.37;;;15.63;;
75639;SDS011;64233;51.486;6.332;2023-06-22T12:53:35;27.02;;;18.10;;
75639;SDS011;64233;51.486;6.332;2023-06-22T12:56:01;28.10;;;18.50;;
75639;SDS011;64233;51.486;6.332;2023-06-22T12:58:26;18.85;;;12.93;;
75639;SDS011;64233;51.486;6.332;2023-06-22T13:00:51;28.70;;;18.83;;
75639;SDS011;64233;51.486;6.332;2023-06-22T13:03:16;22.60;;;16.05;;
75639;SDS011;64233;51.486;6.332;2023-06-22T13:05:42;26.35;;;17.65;;
75639;SDS011;64233;51.486;6.332;2023-06-22T13:08:07;14.30;;;10.48;;
75639;SDS011;64233;51.486;6.332;2023-06-22T13:10:33;26.58;;;17.15;;
75639;SDS011;64233;51.486;6.332;2023-06-22T13:12:58;26.10;;;18.63;;
75639;SDS011;64233;51.486;6.332;2023-06-22T13:15:26;29.50;;;19.08;;
75639;SDS011;64233;51.486;6.332;2023-06-22T13:17:52;24.73;;;16.23;;
75639;SDS011;64233;51.486;6.332;2023-06-22T13:20:18;28.48;;;17.73;;
75639;SDS011;64233;51.486;6.332;2023-06-22T13:22:43;22.00;;;15.27;;
75639;SDS011;64233;51.486;6.332;2023-06-22T13:25:08;15.20;;;10.17;;
75639;SDS011;64233;51.486;6.332;2023-06-22T13:27:37;22.30;;;16.08;;
75639;SDS011;64233;51.486;6.332;2023-06-22T13:30:05;23.30;;;16.48;;
75639;SDS011;64233;51.486;6.332;2023-06-22T13:32:31;13.38;;;8.95;;
75639;SDS011;64233;51.486;6.332;2023-06-22T13:34:57;23.65;;;16.45;;
75639;SDS011;64233;51.486;6.332;2023-06-22T13:37:22;29.10;;;19.15;;
75639;SDS011;64233;51.486;6.332;2023-06-22T13:39:47;12.23;;;7.65;;
75639;SDS011;64233;51.486;6.332;2023-06-22T13:42:13;19.60;;;15.02;;
75639;SDS011;64233;51.486;6.332;2023-06-22T13:44:38;15.07;;;11.95;;
75639;SDS011;64233;51.486;6.332;2023-06-22T13:47:03;23.25;;;15.98;;
75639;SDS011;64233;51.486;6.332;2023-06-22T13:49:29;22.20;;;15.05;;
75639;SDS011;64233;51.486;6.332;2023-06-22T13:51:55;25.17;;;15.88;;
75639;SDS011;64233;51.486;6.332;2023-06-22T13:54:20;23.00;;;17.15;;
75639;SDS011;64233;51.486;6.332;2023-06-22T13:56:46;24.58;;;16.75;;
75639;SDS011;64233;51.486;6.332;2023-06-22T13:59:11;22.15;;;15.30;;
75639;SDS011;64233;51.486;6.332;2023-06-22T14:01:37;23.70;;;16.27;;
75639;SDS011;64233;51.486;6.332;2023-06-22T14:04:04;23.50;;;15.85;;
75639;SDS011;64233;51.486;6.332;2023-06-22T14:06:30;21.75;;;14.65;;
75639;SDS011;64233;51.486;6.332;2023-06-22T14:08:55;20.40;;;13.00;;
75639;SDS011;64233;51.486;6.332;2023-06-22T14:11:21;17.40;;;10.80;;
75639;SDS011;64233;51.486;6.332;2023-06-22T14:13:46;23.65;;;15.60;;
75639;SDS011;64233;51.486;6.332;2023-06-22T14:16:11;23.20;;;15.70;;
75639;SDS011;64233;51.486;6.332;2023-06-22T14:18:37;20.67;;;14.93;;
75639;SDS011;64233;51.486;6.332;2023-06-22T14:21:02;27.63;;;18.17;;
75639;SDS011;64233;51.486;6.332;2023-06-22T14:23:27;23.98;;;15.32;;
75639;SDS011;64233;51.486;6.332;2023-06-22T14:25:52;25.17;;;16.30;;
75639;SDS011;64233;51.486;6.332;2023-06-22T14:28:18;20.10;;;12.47;;